createdAt,value
2022-08-12T00:00:43.960Z,2.97
2022-08-12T00:03:30.485Z,3.10
2022-08-12T00:06:17.739Z,3.33
2022-08-12T00:09:04.513Z,3.95
2022-08-12T00:11:51.984Z,3.90
2022-08-12T00:14:39.000Z,3.70
2022-08-12T00:17:26.736Z,3.55
2022-08-12T00:20:14.769Z,3.30
2022-08-12T00:23:02.878Z,3.63
2022-08-12T00:26:21.235Z,3.45
2022-08-12T00:29:07.696Z,3.50
2022-08-12T00:31:56.847Z,3.10
2022-08-12T00:34:43.556Z,3.78
2022-08-12T00:37:32.692Z,3.40
2022-08-12T00:40:20.013Z,3.90
2022-08-12T00:42:51.898Z,3.80
2022-08-12T00:45:20.392Z,3.50
2022-08-12T00:47:51.531Z,3.42
2022-08-12T00:50:22.387Z,3.30
2022-08-12T00:52:52.569Z,3.60
2022-08-12T00:55:21.435Z,3.55
2022-08-12T00:57:50.826Z,3.60
2022-08-12T01:00:21.672Z,4.13
2022-08-12T01:02:58.135Z,3.65
2022-08-12T01:05:53.290Z,3.60
2022-08-12T01:08:39.740Z,3.75
2022-08-12T01:11:29.062Z,3.70
2022-08-12T01:14:00.061Z,4.00
2022-08-12T01:16:28.456Z,4.00
2022-08-12T01:18:57.856Z,3.65
2022-08-12T01:21:40.704Z,3.92
2022-08-12T01:24:30.210Z,3.58
2022-08-12T01:27:01.353Z,3.42
2022-08-12T01:29:32.995Z,4.07
2022-08-12T01:32:08.320Z,4.15
2022-08-12T01:34:39.660Z,4.03
2022-08-12T01:37:09.828Z,3.92
2022-08-12T01:40:35.837Z,4.03
2022-08-12T01:42:47.271Z,3.88
2022-08-12T01:45:17.711Z,4.30
2022-08-12T01:48:03.817Z,4.38
2022-08-12T01:50:37.377Z,3.67
2022-08-12T01:53:10.472Z,4.10
2022-08-12T01:55:44.588Z,4.15
2022-08-12T01:59:01.058Z,4.30
2022-08-12T02:01:39.518Z,4.40
2022-08-12T02:04:44.995Z,4.13
2022-08-12T02:08:08.400Z,4.63
2022-08-12T02:10:57.859Z,4.35
2022-08-12T02:14:02.182Z,4.30
2022-08-12T02:16:39.292Z,4.18
2022-08-12T02:19:23.432Z,4.38
2022-08-12T02:22:38.279Z,4.28
2022-08-12T02:25:13.424Z,4.00
2022-08-12T02:27:52.212Z,4.10
2022-08-12T02:30:23.087Z,4.15
2022-08-12T02:32:53.587Z,4.15
2022-08-12T02:35:27.344Z,4.30
2022-08-12T02:37:59.331Z,4.30
2022-08-12T02:40:28.925Z,4.50
2022-08-12T02:43:12.562Z,4.25
2022-08-12T02:46:04.526Z,4.53
2022-08-12T02:49:00.759Z,4.72
2022-08-12T02:51:34.388Z,4.10
2022-08-12T02:54:06.182Z,4.30
2022-08-12T02:56:50.571Z,4.60
2022-08-12T02:59:24.545Z,4.38
2022-08-12T03:02:03.605Z,4.53
2022-08-12T03:04:47.693Z,4.50
2022-08-12T03:07:59.573Z,4.60
2022-08-12T03:10:36.650Z,4.93
2022-08-12T03:13:08.277Z,4.53
2022-08-12T03:15:37.632Z,4.80
2022-08-12T03:18:24.963Z,4.72
2022-08-12T03:21:00.261Z,4.93
2022-08-12T03:23:31.316Z,5.10
2022-08-12T03:26:02.415Z,4.88
2022-08-12T03:28:54.007Z,4.63
2022-08-12T03:31:29.784Z,4.63
2022-08-12T03:34:03.302Z,4.38
2022-08-12T03:36:35.022Z,4.75
2022-08-12T03:39:18.968Z,4.85
2022-08-12T03:42:09.543Z,4.72
2022-08-12T03:45:11.685Z,4.95
2022-08-12T03:48:18.663Z,4.18
2022-08-12T03:51:07.708Z,5.00
2022-08-12T03:53:55.212Z,4.70
2022-08-12T03:56:42.014Z,4.82
2022-08-12T03:59:28.856Z,4.72
2022-08-12T04:02:00.026Z,5.15
2022-08-12T04:04:35.546Z,5.38
2022-08-12T04:07:09.199Z,5.30
2022-08-12T04:09:41.569Z,5.17
2022-08-12T04:12:32.928Z,5.35
2022-08-12T04:15:01.968Z,5.88
2022-08-12T04:17:30.855Z,5.50
2022-08-12T04:19:59.669Z,5.78
2022-08-12T04:22:30.342Z,5.22
2022-08-12T04:25:02.860Z,5.60
2022-08-12T04:27:32.473Z,5.53
2022-08-12T04:30:16.787Z,5.20
2022-08-12T04:32:52.186Z,5.55
2022-08-12T04:35:22.098Z,5.35
2022-08-12T04:37:57.948Z,5.97
2022-08-12T04:40:30.210Z,6.10
2022-08-12T04:43:01.107Z,5.60
2022-08-12T04:45:31.148Z,5.03
2022-08-12T04:47:59.219Z,4.80
2022-08-12T04:50:35.990Z,5.68
2022-08-12T04:53:08.349Z,5.30
2022-08-12T04:55:39.255Z,5.65
2022-08-12T04:58:09.907Z,5.28
2022-08-12T05:00:38.683Z,5.57
2022-08-12T05:03:10.306Z,5.30
2022-08-12T05:05:40.821Z,5.40
2022-08-12T05:08:17.395Z,5.20
2022-08-12T05:10:47.484Z,5.28
2022-08-12T05:13:33.588Z,5.40
2022-08-12T05:16:05.219Z,4.88
2022-08-12T05:18:39.461Z,5.20
2022-08-12T05:21:09.342Z,5.20
2022-08-12T05:23:38.798Z,5.82
2022-08-12T05:26:07.535Z,5.60
2022-08-12T05:28:36.296Z,5.10
2022-08-12T05:31:04.963Z,5.22
2022-08-12T05:33:40.787Z,5.07
2022-08-12T05:36:12.569Z,5.30
2022-08-12T05:38:58.679Z,4.82
2022-08-12T05:41:35.239Z,5.68
2022-08-12T05:44:13.417Z,5.18
2022-08-12T05:46:41.825Z,5.30
2022-08-12T05:49:12.809Z,5.35
2022-08-12T05:51:41.861Z,5.45
2022-08-12T05:54:11.340Z,5.93
2022-08-12T05:56:41.302Z,5.50
2022-08-12T05:59:11.453Z,5.13
2022-08-12T06:02:12.521Z,5.88
2022-08-12T06:04:30.252Z,5.80
2022-08-12T06:06:58.295Z,5.47
2022-08-12T06:09:28.602Z,5.75
2022-08-12T06:12:04.465Z,6.30
2022-08-12T06:14:37.712Z,6.20
2022-08-12T06:17:09.292Z,6.00
2022-08-12T06:20:22.848Z,6.00
2022-08-12T06:22:26.772Z,6.28
2022-08-12T06:24:54.704Z,5.65
2022-08-12T06:27:22.664Z,5.47
2022-08-12T06:30:10.301Z,5.63
2022-08-12T06:33:04.235Z,5.80
2022-08-12T06:35:48.672Z,5.60
2022-08-12T06:38:21.372Z,6.45
2022-08-12T06:41:12.584Z,6.50
2022-08-12T06:44:04.585Z,6.22
2022-08-12T06:46:30.231Z,6.25
2022-08-12T06:48:59.523Z,5.85
2022-08-12T06:51:29.558Z,6.05
2022-08-12T06:53:58.613Z,5.93
2022-08-12T06:56:45.880Z,6.00
2022-08-12T06:59:15.603Z,5.70
2022-08-12T07:01:51.230Z,5.97
2022-08-12T07:04:38.452Z,6.18
2022-08-12T07:07:09.016Z,5.63
2022-08-12T07:10:06.983Z,6.38
2022-08-12T07:12:27.838Z,5.47
2022-08-12T07:15:01.783Z,5.53
2022-08-12T07:20:09.945Z,5.43
2022-08-12T07:22:41.741Z,6.47
2022-08-12T07:25:29.509Z,6.07
2022-08-12T07:28:18.475Z,5.60
2022-08-12T07:30:49.150Z,5.78
2022-08-12T07:33:19.100Z,5.88
2022-08-12T07:35:48.118Z,5.40
2022-08-12T07:38:29.570Z,5.80
2022-08-12T07:41:06.679Z,5.50
2022-08-12T07:43:40.011Z,5.70
2022-08-12T07:46:15.030Z,5.95
2022-08-12T07:48:52.976Z,5.90
2022-08-12T07:51:25.314Z,6.18
2022-08-12T07:54:01.122Z,5.78
2022-08-12T07:56:31.692Z,5.95
2022-08-12T07:59:01.049Z,6.28
2022-08-12T08:01:29.474Z,5.80
2022-08-12T08:04:19.085Z,5.90
2022-08-12T08:06:48.294Z,5.60
2022-08-12T08:09:18.453Z,5.22
2022-08-12T08:12:05.177Z,5.50
2022-08-12T08:14:33.153Z,5.60
2022-08-12T08:17:06.830Z,5.28
2022-08-12T08:20:02.820Z,5.30
2022-08-12T08:22:35.629Z,5.22
2022-08-12T08:25:34.484Z,5.35
2022-08-12T08:28:04.521Z,5.28
2022-08-12T08:30:37.707Z,5.75
2022-08-12T08:33:22.682Z,5.43
2022-08-12T08:35:54.577Z,5.13
2022-08-12T08:38:32.011Z,4.47
2022-08-12T08:42:15.965Z,5.00
2022-08-12T08:44:11.302Z,3.80
2022-08-12T08:46:40.703Z,4.18
2022-08-12T08:49:08.942Z,3.85
2022-08-12T08:51:38.962Z,4.35
2022-08-12T08:54:12.478Z,4.30
2022-08-12T08:56:49.875Z,3.90
2022-08-12T08:59:19.538Z,3.90
2022-08-12T09:01:48.825Z,3.92
2022-08-12T09:05:11.903Z,3.70
2022-08-12T09:07:17.235Z,4.07
2022-08-12T09:10:02.016Z,3.40
2022-08-12T09:12:54.420Z,3.65
2022-08-12T09:15:41.646Z,3.75
2022-08-12T09:18:11.792Z,3.70
2022-08-12T09:24:00.123Z,3.13
2022-08-12T09:26:19.110Z,3.25
2022-08-12T09:32:04.382Z,3.00
2022-08-12T09:34:25.314Z,3.20
2022-08-12T09:37:02.922Z,3.72
2022-08-12T09:40:06.323Z,3.00
2022-08-12T09:43:15.927Z,3.03
2022-08-12T09:46:06.823Z,3.00
2022-08-12T09:48:36.027Z,2.83
2022-08-12T09:51:16.919Z,2.80
2022-08-12T09:54:08.471Z,3.00
2022-08-12T09:56:58.276Z,2.90
2022-08-12T10:00:13.154Z,2.53
2022-08-12T10:02:49.769Z,2.60
2022-08-12T10:05:13.562Z,2.58
2022-08-12T10:07:45.512Z,2.47
2022-08-12T10:10:22.878Z,2.72
2022-08-12T10:13:33.881Z,2.80
2022-08-12T10:16:05.917Z,2.80
2022-08-12T10:18:51.817Z,2.72
2022-08-12T10:21:37.815Z,2.78
2022-08-12T10:24:15.652Z,2.60
2022-08-12T10:27:07.694Z,2.75
2022-08-12T10:30:37.082Z,3.00
2022-08-12T10:32:43.831Z,2.40
2022-08-12T10:35:20.211Z,2.40
2022-08-12T10:38:37.835Z,2.40
2022-08-12T10:40:55.892Z,2.58
2022-08-12T10:43:55.611Z,2.50
2022-08-12T10:46:31.532Z,2.53
2022-08-12T10:49:07.033Z,2.50
2022-08-12T10:52:04.853Z,2.28
2022-08-12T10:54:37.662Z,2.22
2022-08-12T10:57:06.577Z,2.38
2022-08-12T11:00:01.442Z,2.58
2022-08-12T11:04:27.679Z,2.35
2022-08-12T11:07:10.114Z,2.58
2022-08-12T11:08:36.510Z,2.55
2022-08-12T11:10:53.452Z,2.67
2022-08-12T11:13:21.309Z,2.55
2022-08-12T11:16:22.244Z,2.22
2022-08-12T11:18:55.309Z,2.53
2022-08-12T11:21:31.081Z,2.65
2022-08-12T11:24:30.083Z,2.60
2022-08-12T11:27:07.278Z,2.40
2022-08-12T11:30:06.008Z,2.40
2022-08-12T11:32:28.607Z,2.50
2022-08-12T11:34:59.412Z,2.40
2022-08-12T11:37:27.542Z,2.55
2022-08-12T11:42:46.026Z,2.42
2022-08-12T11:45:16.620Z,2.50
2022-08-12T11:47:45.625Z,2.60
2022-08-12T11:50:19.546Z,2.42
2022-08-12T11:55:27.554Z,2.53
2022-08-12T11:58:14.585Z,2.47
2022-08-12T12:03:44.012Z,2.70
2022-08-12T12:06:17.257Z,2.53
2022-08-12T12:08:50.895Z,2.40
2022-08-12T12:11:20.377Z,2.47
2022-08-12T12:14:08.298Z,2.70
2022-08-12T12:16:40.012Z,2.30
2022-08-12T12:19:10.571Z,2.40
2022-08-12T12:21:48.208Z,2.60
2022-08-12T12:24:22.465Z,2.30
2022-08-12T12:26:59.790Z,2.28
2022-08-12T12:30:19.121Z,2.15
2022-08-12T12:32:29.037Z,2.40
2022-08-12T12:35:13.561Z,3.03
2022-08-12T12:38:05.447Z,2.22
2022-08-12T12:40:44.998Z,2.20
2022-08-12T12:43:14.811Z,2.60
2022-08-12T12:45:46.474Z,2.58
2022-08-12T12:48:20.507Z,2.55
2022-08-12T12:51:13.553Z,2.60
2022-08-12T12:54:07.453Z,2.65
2022-08-12T12:56:43.075Z,2.35
2022-08-12T12:59:55.512Z,2.40
2022-08-12T13:02:08.657Z,2.45
2022-08-12T13:04:41.292Z,2.72
2022-08-12T13:07:13.255Z,2.42
2022-08-12T13:09:46.664Z,2.72
2022-08-12T13:12:15.132Z,2.65
2022-08-12T13:14:43.994Z,2.70
2022-08-12T13:17:24.124Z,2.42
2022-08-12T13:20:33.584Z,2.63
2022-08-12T13:23:02.902Z,2.30
2022-08-12T13:25:51.013Z,2.42
2022-08-12T13:28:24.420Z,2.30
2022-08-12T13:30:59.386Z,2.47
2022-08-12T13:33:28.748Z,2.60
2022-08-12T13:36:06.983Z,2.50
2022-08-12T13:38:44.055Z,2.35
2022-08-12T13:41:40.394Z,2.50
2022-08-12T13:44:11.706Z,2.30
2022-08-12T13:46:42.118Z,2.35
2022-08-12T13:49:53.357Z,2.38
2022-08-12T13:52:02.014Z,2.30
2022-08-12T13:54:32.890Z,2.50
2022-08-12T13:57:01.444Z,2.47
2022-08-12T13:59:30.945Z,2.40
2022-08-12T14:02:18.328Z,2.38
2022-08-12T14:04:56.227Z,2.45
2022-08-12T14:07:25.992Z,2.30
2022-08-12T14:10:16.076Z,2.63
2022-08-12T14:12:54.850Z,2.40
2022-08-12T14:15:35.066Z,2.40
2022-08-12T14:18:15.350Z,2.70
2022-08-12T14:20:52.158Z,2.70
2022-08-12T14:24:04.879Z,2.47
2022-08-12T14:26:17.055Z,2.40
2022-08-12T14:29:01.081Z,2.40
2022-08-12T14:31:32.511Z,2.53
2022-08-12T14:34:05.024Z,2.53
2022-08-12T14:36:34.060Z,2.60
2022-08-12T14:39:04.820Z,2.30
2022-08-12T14:41:37.060Z,2.40
2022-08-12T14:44:58.944Z,2.90
2022-08-12T14:47:10.119Z,2.83
2022-08-12T14:50:33.968Z,2.30
2022-08-12T14:53:13.362Z,2.50
2022-08-12T14:58:10.045Z,2.60
2022-08-12T15:00:58.137Z,2.72
2022-08-12T15:03:52.117Z,2.40
2022-08-12T15:06:43.738Z,2.42
2022-08-12T15:09:11.840Z,2.30
2022-08-12T15:11:48.816Z,2.40
2022-08-12T15:14:30.267Z,2.35
2022-08-12T15:17:00.158Z,2.40
2022-08-12T15:20:28.275Z,2.53
2022-08-12T15:22:35.656Z,2.47
2022-08-12T15:25:08.958Z,2.60
2022-08-12T15:28:03.876Z,2.63
2022-08-12T15:30:32.293Z,2.70
2022-08-12T15:33:14.863Z,2.38
2022-08-12T15:35:52.052Z,2.30
2022-08-12T15:38:24.896Z,2.40
2022-08-12T15:40:54.728Z,2.40
2022-08-12T15:43:35.644Z,2.30
2022-08-12T15:46:15.883Z,2.40
2022-08-12T15:48:46.707Z,2.38
2022-08-12T15:51:58.133Z,2.55
2022-08-12T15:54:34.500Z,2.45
2022-08-12T15:57:07.957Z,2.28
2022-08-12T15:59:51.248Z,2.40
2022-08-12T16:02:29.602Z,2.10
2022-08-12T16:05:00.480Z,2.40
2022-08-12T16:07:31.297Z,2.60
2022-08-12T16:10:12.332Z,2.50
2022-08-12T16:12:56.483Z,2.33
2022-08-12T16:15:29.396Z,2.60
2022-08-12T16:18:15.230Z,2.28
2022-08-12T16:20:48.749Z,2.58
2022-08-12T16:23:50.946Z,2.60
2022-08-12T16:26:14.870Z,2.40
2022-08-12T16:28:47.341Z,2.38
2022-08-12T16:31:22.639Z,2.60
2022-08-12T16:33:58.695Z,2.30
2022-08-12T16:36:35.226Z,2.47
2022-08-12T16:39:05.060Z,2.30
2022-08-12T16:41:38.066Z,2.50
2022-08-12T16:44:10.188Z,2.13
2022-08-12T16:46:57.459Z,2.33
2022-08-12T16:49:26.369Z,2.28
2022-08-12T16:52:12.656Z,2.10
2022-08-12T16:54:42.586Z,2.53
2022-08-12T16:57:14.082Z,2.20
2022-08-12T16:59:53.443Z,2.28
2022-08-12T17:02:33.578Z,2.33
2022-08-12T17:05:17.733Z,2.25
2022-08-12T17:08:18.399Z,2.30
2022-08-12T17:13:54.774Z,2.20
2022-08-12T17:16:30.485Z,2.13
2022-08-12T17:19:12.749Z,2.25
2022-08-12T17:22:02.771Z,1.90
2022-08-12T17:24:54.522Z,2.38
2022-08-12T17:27:26.235Z,2.20
2022-08-12T17:30:01.943Z,2.35
2022-08-12T17:32:35.382Z,2.40
2022-08-12T17:38:11.826Z,2.03
2022-08-12T17:40:52.164Z,1.90
2022-08-12T17:43:56.752Z,1.70
2022-08-12T17:46:23.868Z,2.20
2022-08-12T17:49:00.684Z,2.10
2022-08-12T17:51:49.855Z,2.10
2022-08-12T17:54:19.839Z,1.90
2022-08-12T17:56:51.650Z,2.00
2022-08-12T17:59:47.979Z,1.83
2022-08-12T18:02:13.649Z,1.80
2022-08-12T18:05:05.091Z,1.98
2022-08-12T18:07:32.439Z,1.92
2022-08-12T18:10:10.399Z,2.17
2022-08-12T18:12:42.816Z,1.80
2022-08-12T18:16:03.516Z,1.90
2022-08-12T18:18:16.710Z,2.00
2022-08-12T18:20:46.687Z,2.10
2022-08-12T18:23:14.928Z,2.10
2022-08-12T18:26:14.460Z,2.22
2022-08-12T18:28:48.397Z,2.30
2022-08-12T18:31:26.151Z,2.10
2022-08-12T18:34:15.550Z,1.90
2022-08-12T18:36:51.686Z,1.90
2022-08-12T18:39:22.179Z,2.15
2022-08-12T18:41:52.676Z,2.15
2022-08-12T18:44:25.552Z,2.13
2022-08-12T18:46:58.103Z,2.10
2022-08-12T18:49:56.071Z,2.17
2022-08-12T18:52:33.895Z,2.20
2022-08-12T18:55:08.063Z,2.20
2022-08-12T18:58:06.049Z,2.28
2022-08-12T19:00:34.838Z,2.55
2022-08-12T19:03:23.447Z,2.58
2022-08-12T19:05:58.445Z,2.50
2022-08-12T19:08:30.077Z,2.10
2022-08-12T19:11:19.152Z,2.50
2022-08-12T19:14:08.008Z,2.47
2022-08-12T19:16:40.607Z,2.83
2022-08-12T19:19:11.262Z,3.15
2022-08-12T19:21:44.079Z,2.67
2022-08-12T19:24:44.512Z,2.78
2022-08-12T19:27:20.646Z,2.75
2022-08-12T19:30:06.733Z,2.92
2022-08-12T19:32:37.872Z,2.80
2022-08-12T19:38:06.276Z,2.60
2022-08-12T19:40:40.000Z,3.10
2022-08-12T19:43:19.970Z,2.53
2022-08-12T19:45:56.797Z,2.50
2022-08-12T19:48:33.031Z,2.38
2022-08-12T19:51:22.454Z,2.53
2022-08-12T19:53:57.278Z,2.45
2022-08-12T19:56:32.325Z,2.33
2022-08-12T19:59:20.998Z,2.72
2022-08-12T20:02:01.369Z,2.70
2022-08-12T20:04:42.024Z,2.30
2022-08-12T20:07:23.792Z,2.70
2022-08-12T20:09:55.622Z,2.58
2022-08-12T20:12:32.466Z,2.28
2022-08-12T20:15:17.568Z,2.40
2022-08-12T20:17:51.055Z,2.60
2022-08-12T20:20:28.252Z,2.30
2022-08-12T20:22:57.441Z,2.40
2022-08-12T20:25:28.455Z,3.15
2022-08-12T20:28:15.287Z,2.55
2022-08-12T20:30:59.291Z,2.50
2022-08-12T20:33:32.272Z,2.88
2022-08-12T20:36:06.953Z,2.80
2022-08-12T20:38:54.226Z,2.83
2022-08-12T20:41:24.005Z,2.67
2022-08-12T20:43:59.831Z,2.50
2022-08-12T20:46:32.945Z,2.50
2022-08-12T20:49:17.085Z,2.97
2022-08-12T20:51:55.291Z,3.08
2022-08-12T20:54:32.677Z,3.28
2022-08-12T20:57:09.687Z,2.90
2022-08-12T20:59:49.419Z,2.88
2022-08-12T21:02:24.735Z,2.80
2022-08-12T21:05:20.221Z,2.80
2022-08-12T21:07:52.365Z,2.63
2022-08-12T21:10:26.464Z,2.88
2022-08-12T21:12:55.692Z,3.00
2022-08-12T21:15:30.801Z,2.55
2022-08-12T21:18:28.925Z,2.50
2022-08-12T21:21:00.696Z,2.78
2022-08-12T21:23:36.993Z,2.78
2022-08-12T21:26:16.162Z,2.83
2022-08-12T21:28:58.342Z,2.60
2022-08-12T21:32:39.734Z,2.60
2022-08-12T21:34:26.359Z,2.78
2022-08-12T21:37:12.888Z,2.90
2022-08-12T21:39:56.369Z,3.05
2022-08-12T21:42:26.946Z,3.22
2022-08-12T21:45:48.078Z,2.67
2022-08-12T21:47:53.289Z,2.88
2022-08-12T21:50:35.575Z,2.75
2022-08-12T21:53:10.470Z,2.90
2022-08-12T21:55:39.816Z,3.22
2022-08-12T21:58:16.752Z,3.08
2022-08-12T22:00:45.437Z,2.70
2022-08-12T22:04:02.881Z,3.10
2022-08-12T22:06:30.942Z,2.92
2022-08-12T22:09:16.128Z,2.72
2022-08-12T22:11:56.052Z,3.13
2022-08-12T22:14:29.051Z,3.35
2022-08-12T22:17:00.351Z,3.50
2022-08-12T22:19:33.788Z,3.30
2022-08-12T22:22:05.374Z,3.47
2022-08-12T22:24:36.870Z,3.40
2022-08-12T22:27:32.684Z,3.10
2022-08-12T22:30:19.767Z,3.25
2022-08-12T22:32:50.660Z,3.13
2022-08-12T22:35:47.699Z,3.30
2022-08-12T22:38:26.751Z,3.42
2022-08-12T22:41:01.284Z,3.47
2022-08-12T22:43:58.624Z,3.80
2022-08-12T22:46:41.002Z,3.53
2022-08-12T22:49:22.261Z,3.40
2022-08-12T22:52:00.876Z,3.38
2022-08-12T22:54:36.946Z,3.40
2022-08-12T22:57:12.055Z,3.60
2022-08-12T22:59:55.090Z,3.53
2022-08-12T23:02:28.716Z,3.55
2022-08-12T23:04:59.658Z,3.70
2022-08-12T23:07:36.338Z,3.53
2022-08-12T23:10:18.926Z,3.47
2022-08-12T23:13:08.695Z,3.45
2022-08-12T23:15:40.181Z,3.40
2022-08-12T23:18:16.845Z,3.25
2022-08-12T23:20:45.557Z,3.53
2022-08-12T23:23:20.882Z,3.20
2022-08-12T23:25:55.642Z,3.10
2022-08-12T23:28:42.519Z,3.03
2022-08-12T23:31:10.912Z,3.28
2022-08-12T23:34:02.395Z,3.17
2022-08-12T23:36:39.187Z,3.40
2022-08-12T23:40:06.598Z,3.38
2022-08-12T23:42:16.961Z,3.40
2022-08-12T23:44:48.604Z,3.50
2022-08-12T23:47:21.701Z,3.30
2022-08-12T23:49:56.998Z,3.30
2022-08-12T23:52:33.843Z,3.28
2022-08-12T23:55:23.475Z,3.72
2022-08-12T23:58:21.046Z,3.20
